METAR Podaci o vazduhoplovstvu     EFOU Oulu Airport
Temperatura
46°F Temperatura
43°F Tačka Rose
87% Vlaga



Vetar
7 MPS
11 KM/S
3 M/S
6 Čvorovi



100°
I
Trenutna situacija

Oblačno Oblačno
Vazdušni pritisak 1014.92 (hPa) - 29.97 (inHg)
Vidljivost 6.2 (Milje) - 10 (km)
Aerodrom
Aerodromski kod. EFOU

Lokacija: Oulu Airport
Udaljenost: 83 (mi)

Metar:
EFOU 281220Z AUTO 10006KT 9999 OVC009 08/06 Q1015

Vreme: 28-09-2022 15:20 EEST